Autumn — V7QA6 — position and weather

sailwx.info

Track history (hours):
 
Tides and Currents Weather Stations Pressure Air Temp Water Temp Dewpoint Dewpoint Depression Visibility Wind Speed Wind Dir Waves Ship Positions

Autumn

Last reported at 2017-Jun-26 15:30 UTC. Time now 2017-Jun-26 15:29 UTC.
Position N 50°20' W 001°42'.

Length 129 m; draft 8.1 m.

Type: Tanker. MMSI: 538003323.

Date/timePositionNaut miles runAvg speedWind from/ knotsBaromVisibWave heightAir tempDewpointWater temp
2017-Jun-26 15:30N 50°20' W 001°42'815.6
2017-Jun-26 15:00N 50°24' W 001°31'815.4
2017-Jun-26 14:30N 50°28' W 001°20'1515.3
2017-Jun-26 13:30N 50°37' W 001°01'611.5
2017-Jun-26 13:00N 50°42' W 000°59'4 8.9
2017-Jun-26 12:30N 50°45' W 001°05'510.8
2017-Jun-26 12:00N 50°47' W 001°13'4 7.3
2017-Jun-26 11:31N 50°49' W 001°18'2 4.8
2017-Jun-26 11:00N 50°51' W 001°20'0 0.0
2017-Jun-26 10:30N 50°51' W 001°20'0 0.0
2017-Jun-26 09:57N 50°51' W 001°20'0 0.0
2017-Jun-26 09:27N 50°51' W 001°20'0 0.0
2017-Jun-26 08:48N 50°51' W 001°20'0 0.0
2017-Jun-26 08:21N 50°51' W 001°20'0 0.0
2017-Jun-26 07:42N 50°51' W 001°20'0 0.0
2017-Jun-26 07:27N 50°51' W 001°20'0 0.0
2017-Jun-26 06:48N 50°51' W 001°20'0 0.0
2017-Jun-26 06:27N 50°51' W 001°20'0 0.0
2017-Jun-26 05:57N 50°51' W 001°20'0 0.0
2017-Jun-26 05:15N 50°51' W 001°20'0 0.0
2017-Jun-26 04:54N 50°51' W 001°20'0 0.0
2017-Jun-26 04:30N 50°51' W 001°20'0 0.0
2017-Jun-26 04:00N 50°51' W 001°20'0 0.0
2017-Jun-26 03:09N 50°51' W 001°20'0 0.0
2017-Jun-26 02:39N 50°51' W 001°20'0 0.0
2017-Jun-26 01:21N 50°51' W 001°20'0 0.0
2017-Jun-26 00:57N 50°51' W 001°20'0 0.0
2017-Jun-26 00:18N 50°51' W 001°20'0 0.0
2017-Jun-26 00:00N 50°51' W 001°20'0 0.0
2017-Jun-25 23:24N 50°51' W 001°20'0 0.0
2017-Jun-25 22:48N 50°51' W 001°20'0 0.0
2017-Jun-25 22:27N 50°51' W 001°20'0 0.0
2017-Jun-25 21:54N 50°51' W 001°20'0 0.0
2017-Jun-25 20:33N 50°51' W 001°20'0 0.1
2017-Jun-25 20:27N 50°51' W 001°20'0 0.0
2017-Jun-25 19:54N 50°51' W 001°20'0 0.0
2017-Jun-25 19:24N 50°51' W 001°20'0 0.0
2017-Jun-25 19:00N 50°51' W 001°20'0 0.0
2017-Jun-25 18:00N 50°51' W 001°20'0 0.0
2017-Jun-25 16:42N 50°51' W 001°20'0 0.0
2017-Jun-25 16:27N 50°51' W 001°20'0 0.0
2017-Jun-25 16:00N 50°51' W 001°20'0 0.0
2017-Jun-25 15:30N 50°51' W 001°20'0 0.0
2017-Jun-25 14:36N 50°51' W 001°20'0 0.3
2017-Jun-25 14:00N 50°51' W 001°20'3 5.1
2017-Jun-25 13:30N 50°49' W 001°17'611.8
2017-Jun-25 13:00N 50°46' W 001°09'3 6.6
2017-Jun-25 12:30N 50°44' W 001°04'2 4.0
2017-Jun-25 11:59N 50°43' W 001°02'0 0.1
2017-Jun-25 11:29N 50°43' W 001°02'0 0.0
2017-Jun-25 10:59N 50°43' W 001°02'0 0.0
2017-Jun-25 10:29N 50°43' W 001°02'0 0.0
2017-Jun-25 09:59N 50°43' W 001°02'0 0.0
2017-Jun-25 09:29N 50°43' W 001°02'0 0.1
2017-Jun-25 08:59N 50°43' W 001°02'0 0.1
2017-Jun-25 08:29N 50°43' W 001°02'0 0.0
2017-Jun-25 07:59N 50°43' W 001°02'0 0.0
2017-Jun-25 07:29N 50°43' W 001°02'0 0.0
2017-Jun-25 06:59N 50°43' W 001°02'0 0.0
2017-Jun-25 06:29N 50°43' W 001°02'0 0.0
2017-Jun-25 05:59N 50°43' W 001°02'0 0.0
2017-Jun-25 05:29N 50°43' W 001°02'0 0.1
2017-Jun-25 04:59N 50°43' W 001°02'0 0.1
2017-Jun-25 04:29N 50°43' W 001°02'0 0.0
2017-Jun-25 03:59N 50°43' W 001°02'0 0.0
2017-Jun-25 03:29N 50°43' W 001°02'0 0.0
2017-Jun-25 02:59N 50°43' W 001°02'0 0.0
2017-Jun-25 02:29N 50°43' W 001°02'0 0.1
2017-Jun-25 01:59N 50°43' W 001°02'0 0.1
2017-Jun-25 01:29N 50°43' W 001°02'0 0.0
2017-Jun-25 00:59N 50°43' W 001°02'0 0.0
2017-Jun-25 00:29N 50°43' W 001°02'0 0.0
2017-Jun-24 23:59N 50°43' W 001°02'0 0.1
2017-Jun-24 23:29N 50°43' W 001°02'0 0.1
2017-Jun-24 22:59N 50°43' W 001°02'0 0.0
2017-Jun-24 22:29N 50°43' W 001°02'0 0.0
2017-Jun-24 21:59N 50°43' W 001°02'0 0.0
2017-Jun-24 21:29N 50°43' W 001°02'0 0.0
2017-Jun-24 20:59N 50°43' W 001°02'0 0.0
2017-Jun-24 20:29N 50°43' W 001°02'0 0.1
2017-Jun-24 19:59N 50°43' W 001°02'0 0.0
2017-Jun-24 19:29N 50°43' W 001°02'0 0.0
2017-Jun-24 18:59N 50°43' W 001°02'0 0.0
2017-Jun-24 18:29N 50°43' W 001°02'0 0.0
2017-Jun-24 17:59N 50°43' W 001°02'0 0.0
2017-Jun-24 17:29N 50°43' W 001°02'0 0.0
2017-Jun-24 16:59N 50°43' W 001°02'0 0.1
2017-Jun-24 16:29N 50°43' W 001°02'0 0.1
2017-Jun-24 15:59N 50°43' W 001°02'0 0.1
2017-Jun-24 15:29N 50°43' W 001°02'0 0.0
2017-Jun-24 14:59N 50°43' W 001°02'0 0.1
2017-Jun-24 13:59N 50°43' W 001°02'0 0.2
2017-Jun-24 13:29N 50°43' W 001°02'0 0.1
2017-Jun-24 12:59N 50°43' W 001°02'0 0.0
2017-Jun-24 12:29N 50°43' W 001°02'0 0.0
2017-Jun-24 11:59N 50°43' W 001°02'0 0.1
2017-Jun-24 11:29N 50°43' W 001°02'0 0.1
2017-Jun-24 10:59N 50°43' W 001°02'0 0.0
2017-Jun-24 10:29N 50°43' W 001°02'0 0.0
2017-Jun-24 09:59N 50°43' W 001°02'0 0.0
2017-Jun-24 09:29N 50°43' W 001°02'0 0.0
2017-Jun-24 08:59N 50°43' W 001°02'0 0.2
2017-Jun-24 08:31N 50°43' W 001°02'3 5.8
2017-Jun-24 08:00N 50°42' W 000°58'713.6
2017-Jun-24 07:31N 50°35' W 000°59'915.7
2017-Jun-24 06:55N 50°28' W 001°10'715.5
2017-Jun-24 06:30N 50°24' W 001°17'1114.9
2017-Jun-24 05:46N 50°17' W 001°30'1913.6
2017-Jun-24 04:22N 50°05' W 001°53'512.3
2017-Jun-24 03:57N 50°02' W 001°60'711.3
2017-Jun-24 03:21N 49°59' W 002°09'510.5
2017-Jun-24 02:51N 49°57' W 002°17'2110.0
2017-Jun-24 00:47N 49°52' W 002°48'310.2
2017-Jun-24 00:28N 49°51' W 002°53'810.9
2017-Jun-23 23:42N 49°51' W 003°05'311.3
2017-Jun-23 23:28N 49°51' W 003°10'511.7
2017-Jun-23 23:00N 49°51' W 003°18'612.0
2017-Jun-23 22:29N 49°51' W 003°27'612.1
2017-Jun-23 22:00N 49°51' W 003°37'612.3
2017-Jun-23 21:30N 49°51' W 003°46'712.7
2017-Jun-23 20:58N 49°51' W 003°57'254 9.7
2017-Jun-22 18:41N 53°60' W 005°17'212.3
2017-Jun-22 18:30N 54°02' W 005°16'612.7
2017-Jun-22 18:00N 54°08' W 005°15'612.8
2017-Jun-22 17:30N 54°15' W 005°14'612.8
2017-Jun-22 17:00N 54°21' W 005°12'612.9
2017-Jun-22 16:30N 54°27' W 005°11'612.9
2017-Jun-22 16:00N 54°33' W 005°16'613.0
2017-Jun-22 15:30N 54°39' W 005°21'612.3
2017-Jun-22 15:00N 54°44' W 005°26'611.7
2017-Jun-22 14:30N 54°50' W 005°31'1111.0
2017-Jun-22 13:30N 54°60' W 005°39'1410.1
2017-Jun-22 12:10N 55°10' W 005°53'2 9.4
2017-Jun-22 11:59N 55°12' W 005°55'4 9.2
2017-Jun-22 11:30N 55°15' W 005°60'5 9.9
2017-Jun-22 11:00N 55°19' W 006°05'611.0
2017-Jun-22 10:30N 55°21' W 006°14'611.4
2017-Jun-22 10:00N 55°22' W 006°24'611.5
2017-Jun-22 09:29N 55°20' W 006°34'612.2
2017-Jun-22 09:00N 55°17' W 006°43'611.2
2017-Jun-22 08:31N 55°15' W 006°52'612.5
2017-Jun-22 08:00N 55°11' W 007°01'612.1
2017-Jun-22 07:28N 55°08' W 007°10'4 9.0
2017-Jun-22 06:59N 55°04' W 007°14'1 0.4
2017-Jun-22 03:56N 55°03' W 007°15'0 0.0
2017-Jun-21 06:32N 55°03' W 007°15'0 0.0
2017-Jun-21 05:12N 55°03' W 007°15'0 0.0
2017-Jun-21 04:55N 55°03' W 007°15'0 0.9
2017-Jun-21 04:31N 55°03' W 007°14'3 6.6
2017-Jun-21 04:00N 55°06' W 007°12'4 8.4
2017-Jun-21 03:30N 55°09' W 007°07'4 7.8
2017-Jun-21 02:59N 55°11' W 007°01'511.4
2017-Jun-21 02:30N 55°15' W 006°53'2 4.8
2017-Jun-21 02:00N 55°16' W 006°50'4 8.0
2017-Jun-21 01:30N 55°18' W 006°43'612.5
2017-Jun-21 01:00N 55°21' W 006°34'713.1
2017-Jun-21 00:30N 55°24' W 006°23'713.3
2017-Jun-21 00:00N 55°25' W 006°12'713.6
2017-Jun-20 23:30N 55°23' W 006°01'816.2
2017-Jun-20 23:00N 55°16' W 005°53'815.2
2017-Jun-20 22:30N 55°09' W 005°47'714.2
2017-Jun-20 21:59N 55°03' W 005°41'713.8
2017-Jun-20 21:30N 54°57' W 005°37'612.9
2017-Jun-20 21:01N 54°51' W 005°32'612.5
2017-Jun-20 20:30N 54°45' W 005°27'612.1
2017-Jun-20 20:00N 54°40' W 005°23'612.3
2017-Jun-20 19:30N 54°34' W 005°18'612.1
2017-Jun-20 19:01N 54°29' W 005°14'611.7
2017-Jun-20 18:31N 54°23' W 005°10'611.5
2017-Jun-20 18:00N 54°18' W 005°08'612.0
2017-Jun-20 17:30N 54°12' W 005°10'612.3
2017-Jun-20 17:01N 54°06' W 005°11'612.2
2017-Jun-20 16:30N 53°60' W 005°12'612.4
2017-Jun-20 16:01N 53°54' W 005°14'612.6
2017-Jun-20 15:30N 53°47' W 005°16'1412.5
2017-Jun-20 14:25N 53°34' W 005°19'3310.8
2017-Jun-20 11:25N 53°02' W 005°28'7410.0
2017-Jun-20 04:01N 51°58' W 006°30'612.0
2017-Jun-20 03:30N 51°57' W 006°40'611.7
2017-Jun-20 02:59N 51°55' W 006°49'511.4
2017-Jun-20 02:30N 51°54' W 006°58'611.5
2017-Jun-20 02:00N 51°52' W 007°07'611.5
2017-Jun-20 01:31N 51°50' W 007°16'611.4
2017-Jun-20 01:00N 51°49' W 007°24'611.3
2017-Jun-20 00:28N 51°47' W 007°34'511.4
2017-Jun-20 00:00N 51°46' W 007°42'611.5
2017-Jun-19 23:31N 51°44' W 007°51'611.6
2017-Jun-19 23:00N 51°44' W 008°00'611.9
2017-Jun-19 22:30N 51°45' W 008°10'5 9.1
2017-Jun-19 22:00N 51°48' W 008°16'3 4.8
2017-Jun-19 21:28N 51°50' W 008°16'0 0.0
2017-Jun-19 20:58N 51°50' W 008°16'0 0.0
2017-Jun-19 20:28N 51°50' W 008°16'0 0.0
2017-Jun-19 19:58N 51°50' W 008°16'0 0.0
2017-Jun-19 19:28N 51°50' W 008°16'0 0.0
2017-Jun-19 18:58N 51°50' W 008°16'0 0.0
2017-Jun-19 18:28N 51°50' W 008°16'0 0.0
2017-Jun-19 17:58N 51°50' W 008°16'0 0.0
2017-Jun-19 17:28N 51°50' W 008°16'0 0.0
2017-Jun-19 16:58N 51°50' W 008°16'0 0.0
2017-Jun-19 16:28N 51°50' W 008°16'0 0.0
2017-Jun-19 15:58N 51°50' W 008°16'0 0.0
2017-Jun-19 15:28N 51°50' W 008°16'0 0.0
2017-Jun-19 14:58N 51°50' W 008°16'0 0.0
2017-Jun-19 13:58N 51°50' W 008°16'0 0.0
2017-Jun-19 13:28N 51°50' W 008°16'0 0.0
2017-Jun-19 12:58N 51°50' W 008°16'0 0.0
2017-Jun-19 12:28N 51°50' W 008°16'0 0.0
2017-Jun-19 11:58N 51°50' W 008°16'0 0.0
2017-Jun-19 11:28N 51°50' W 008°16'0 0.0
2017-Jun-19 10:55N 51°50' W 008°16'0 0.0
2017-Jun-19 10:28N 51°50' W 008°16'0 0.0
2017-Jun-19 09:58N 51°50' W 008°16'0 0.0
2017-Jun-19 09:28N 51°50' W 008°16'0 0.0
2017-Jun-19 08:58N 51°50' W 008°16'0 0.0
2017-Jun-19 08:28N 51°50' W 008°16'0 0.0
2017-Jun-19 07:58N 51°50' W 008°16'0 0.0
2017-Jun-19 07:28N 51°50' W 008°16'0 0.0
2017-Jun-19 06:58N 51°50' W 008°16'0 0.0
2017-Jun-19 06:28N 51°50' W 008°16'0 0.0
2017-Jun-19 05:58N 51°50' W 008°16'0 0.0
2017-Jun-19 05:28N 51°50' W 008°16'0 0.0
2017-Jun-19 04:58N 51°50' W 008°16'0 0.0
2017-Jun-19 04:28N 51°50' W 008°16'0 0.0
2017-Jun-19 03:58N 51°50' W 008°16'0 0.0
2017-Jun-19 03:28N 51°50' W 008°16'0 0.0
2017-Jun-19 02:58N 51°50' W 008°16'0 0.0
2017-Jun-19 02:28N 51°50' W 008°16'0 0.0
2017-Jun-19 01:58N 51°50' W 008°16'0 0.0
2017-Jun-19 01:28N 51°50' W 008°16'0 0.0
2017-Jun-19 00:58N 51°50' W 008°16'0 0.0
2017-Jun-19 00:28N 51°50' W 008°16'0 0.0
2017-Jun-18 23:58N 51°50' W 008°16'0 0.0
2017-Jun-18 23:28N 51°50' W 008°16'0 0.0
2017-Jun-18 22:58N 51°50' W 008°16'0 0.0
2017-Jun-18 22:28N 51°50' W 008°16'0 0.0
2017-Jun-18 21:58N 51°50' W 008°16'0 0.0
2017-Jun-18 21:28N 51°50' W 008°16'0 0.0
2017-Jun-18 21:00N 51°50' W 008°16'0 0.4
2017-Jun-18 20:30N 51°50' W 008°16'4 7.6
2017-Jun-18 20:00N 51°46' W 008°15'4 7.9
2017-Jun-18 19:30N 51°43' W 008°12'612.2
2017-Jun-18 19:00N 51°39' W 008°04'612.6
2017-Jun-18 18:30N 51°35' W 007°57'612.9
2017-Jun-18 18:00N 51°30' W 007°50'612.8
2017-Jun-18 17:30N 51°26' W 007°42'612.9
2017-Jun-18 17:00N 51°21' W 007°35'612.9
2017-Jun-18 16:30N 51°17' W 007°27'612.8
2017-Jun-18 16:00N 51°12' W 007°20'612.8
2017-Jun-18 15:30N 51°08' W 007°12'612.7
2017-Jun-18 15:00N 51°04' W 007°05'1312.6
2017-Jun-18 14:00N 50°55' W 006°50'612.4
2017-Jun-18 13:30N 50°51' W 006°43'612.4
2017-Jun-18 13:00N 50°47' W 006°36'612.4
2017-Jun-18 12:30N 50°42' W 006°29'612.4
2017-Jun-18 12:00N 50°38' W 006°22'612.2
2017-Jun-18 11:30N 50°34' W 006°15'612.3
2017-Jun-18 11:00N 50°30' W 006°08'612.4
2017-Jun-18 10:30N 50°25' W 006°01'611.8
2017-Jun-18 10:00N 50°21' W 005°54'713.3
2017-Jun-18 09:30N 50°14' W 005°54'713.5
2017-Jun-18 09:00N 50°08' W 005°54'713.2
2017-Jun-18 08:30N 50°01' W 005°54'912.5
2017-Jun-18 07:45N 49°57' W 005°41'312.8
2017-Jun-18 07:29N 49°57' W 005°36'612.8
2017-Jun-18 07:00N 49°56' W 005°26'713.1
2017-Jun-18 06:29N 49°54' W 005°16'713.2
2017-Jun-18 05:59N 49°53' W 005°06'612.9
2017-Jun-18 05:30N 49°52' W 004°57'713.2
2017-Jun-18 05:00N 49°53' W 004°46'713.2
2017-Jun-18 04:29N 49°53' W 004°36'613.2
2017-Jun-18 04:00N 49°54' W 004°26'713.2
2017-Jun-18 03:29N 49°55' W 004°15'613.0
2017-Jun-18 03:00N 49°56' W 004°06'712.6
2017-Jun-18 02:27N 49°56' W 003°55'612.5
2017-Jun-18 01:57N 49°57' W 003°46'612.3
2017-Jun-18 01:30N 49°57' W 003°37'612.0
2017-Jun-18 01:00N 49°58' W 003°28'611.9
2017-Jun-18 00:30N 49°59' W 003°19'612.0
2017-Jun-18 00:00N 49°60' W 003°09'612.2
2017-Jun-17 23:30N 50°00' W 002°60'612.3
2017-Jun-17 23:00N 50°01' W 002°50'612.6
2017-Jun-17 22:30N 50°03' W 002°41'612.9
2017-Jun-17 22:00N 50°05' W 002°31'713.2
2017-Jun-17 21:30N 50°06' W 002°21'713.7
2017-Jun-17 21:00N 50°08' W 002°11'714.3
2017-Jun-17 20:30N 50°10' W 002°00'714.6
2017-Jun-17 20:00N 50°12' W 001°49'714.9
2017-Jun-17 19:31N 50°14' W 001°38'815.0
2017-Jun-17 19:00N 50°15' W 001°27'714.9
2017-Jun-17 18:30N 50°17' W 001°15'714.6
2017-Jun-17 18:00N 50°19' W 001°04'714.1
2017-Jun-17 17:30N 50°21' W 000°54'713.3
2017-Jun-17 17:00N 50°23' W 000°43'712.6
2017-Jun-17 16:28N 50°24' W 000°33'612.3
2017-Jun-17 15:59N 50°26' W 000°24'611.9
2017-Jun-17 15:30N 50°28' W 000°16'611.7
2017-Jun-17 15:00N 50°29' W 000°07'611.4
2017-Jun-17 14:30N 50°31' E 000°02'1111.1
2017-Jun-17 13:30N 50°34' E 000°19'4 7.6
2017-Jun-17 13:00N 50°34' E 000°25'912.0
2017-Jun-17 12:13N 50°38' E 000°38'2313.5
2017-Jun-17 10:33N 50°51' E 001°08'113.8
2017-Jun-17 10:27N 50°51' E 001°10'613.9
2017-Jun-17 10:00N 50°55' E 001°18'714.2
2017-Jun-17 09:30N 51°00' E 001°25'713.1
2017-Jun-17 09:00N 51°05' E 001°33'510.5
2017-Jun-17 08:30N 51°06' E 001°41'612.3
2017-Jun-17 08:00N 51°03' E 001°50'612.3
2017-Jun-17 07:30N 51°03' E 001°59'611.9
2017-Jun-17 07:00N 51°03' E 002°09'611.5
2017-Jun-17 06:30N 51°04' E 002°18'2 3.4
2017-Jun-17 06:00N 51°03' E 002°20'0 0.5
2017-Jun-17 05:30N 51°03' E 002°20'1 1.1
2017-Jun-17 04:58N 51°03' E 002°21'0 0.0
2017-Jun-17 04:16N 51°03' E 002°21'0 0.0
2017-Jun-17 03:59N 51°03' E 002°21'0 0.0
2017-Jun-17 03:28N 51°03' E 002°21'0 0.0
2017-Jun-17 02:58N 51°03' E 002°21'0 0.0
2017-Jun-17 02:30N 51°03' E 002°21'0 0.0
2017-Jun-17 02:00N 51°03' E 002°21'0 0.0
2017-Jun-17 01:30N 51°03' E 002°21'0 0.0
2017-Jun-17 01:00N 51°03' E 002°21'0 0.0
2017-Jun-17 00:30N 51°03' E 002°21'0 0.0
2017-Jun-17 00:00N 51°03' E 002°21'0 0.0
2017-Jun-16 23:30N 51°03' E 002°21'0 0.0
2017-Jun-16 23:00N 51°03' E 002°21'0 0.0
2017-Jun-16 22:30N 51°03' E 002°21'0 0.0
2017-Jun-16 22:00N 51°03' E 002°21'0 0.0
2017-Jun-16 21:30N 51°03' E 002°21'0 0.0
2017-Jun-16 21:00N 51°03' E 002°21'0 0.0
2017-Jun-16 20:30N 51°03' E 002°21'0 0.0
2017-Jun-16 20:00N 51°03' E 002°21'0 0.0
2017-Jun-16 19:30N 51°03' E 002°21'0 0.0
2017-Jun-16 19:00N 51°03' E 002°21'0 0.0
2017-Jun-16 18:30N 51°03' E 002°21'0 0.0
2017-Jun-16 18:00N 51°03' E 002°21'0 0.0
2017-Jun-16 17:30N 51°03' E 002°21'0 0.0
2017-Jun-16 17:01N 51°03' E 002°21'0 0.0
2017-Jun-16 16:30N 51°03' E 002°21'0 0.0
2017-Jun-16 16:00N 51°03' E 002°21'0 0.0
2017-Jun-16 15:30N 51°03' E 002°21'  
Track history (hours):
 
Tides and Currents Weather Stations Pressure Air Temp Water Temp Dewpoint Dewpoint Depression Visibility Wind Speed Wind Dir Waves Ship Positions

Autumn

Last reported at 2017-Jun-26 15:30 UTC. Time now 2017-Jun-26 15:29 UTC.
Position N 50°20' W 001°42'.

Length 129 m; draft 8.1 m.

Type: Tanker. MMSI: 538003323.

Date/timePositionNaut miles runAvg speedWind from/ knotsBaromVisibWave heightAir tempDewpointWater temp
2017-Jun-26 15:30N 50°20' W 001°42'815.6
2017-Jun-26 15:00N 50°24' W 001°31'815.4
2017-Jun-26 14:30N 50°28' W 001°20'1515.3
2017-Jun-26 13:30N 50°37' W 001°01'611.5
2017-Jun-26 13:00N 50°42' W 000°59'4 8.9
2017-Jun-26 12:30N 50°45' W 001°05'510.8
2017-Jun-26 12:00N 50°47' W 001°13'4 7.3
2017-Jun-26 11:31N 50°49' W 001°18'2 4.8
2017-Jun-26 11:00N 50°51' W 001°20'0 0.0
2017-Jun-26 10:30N 50°51' W 001°20'0 0.0
2017-Jun-26 09:57N 50°51' W 001°20'0 0.0
2017-Jun-26 09:27N 50°51' W 001°20'0 0.0
2017-Jun-26 08:48N 50°51' W 001°20'0 0.0
2017-Jun-26 08:21N 50°51' W 001°20'0 0.0
2017-Jun-26 07:42N 50°51' W 001°20'0 0.0
2017-Jun-26 07:27N 50°51' W 001°20'0 0.0
2017-Jun-26 06:48N 50°51' W 001°20'0 0.0
2017-Jun-26 06:27N 50°51' W 001°20'0 0.0
2017-Jun-26 05:57N 50°51' W 001°20'0 0.0
2017-Jun-26 05:15N 50°51' W 001°20'0 0.0
2017-Jun-26 04:54N 50°51' W 001°20'0 0.0
2017-Jun-26 04:30N 50°51' W 001°20'0 0.0
2017-Jun-26 04:00N 50°51' W 001°20'0 0.0
2017-Jun-26 03:09N 50°51' W 001°20'0 0.0
2017-Jun-26 02:39N 50°51' W 001°20'0 0.0
2017-Jun-26 01:21N 50°51' W 001°20'0 0.0
2017-Jun-26 00:57N 50°51' W 001°20'0 0.0
2017-Jun-26 00:18N 50°51' W 001°20'0 0.0
2017-Jun-26 00:00N 50°51' W 001°20'0 0.0
2017-Jun-25 23:24N 50°51' W 001°20'0 0.0
2017-Jun-25 22:48N 50°51' W 001°20'0 0.0
2017-Jun-25 22:27N 50°51' W 001°20'0 0.0
2017-Jun-25 21:54N 50°51' W 001°20'0 0.0
2017-Jun-25 20:33N 50°51' W 001°20'0 0.1
2017-Jun-25 20:27N 50°51' W 001°20'0 0.0
2017-Jun-25 19:54N 50°51' W 001°20'0 0.0
2017-Jun-25 19:24N 50°51' W 001°20'0 0.0
2017-Jun-25 19:00N 50°51' W 001°20'0 0.0
2017-Jun-25 18:00N 50°51' W 001°20'0 0.0
2017-Jun-25 16:42N 50°51' W 001°20'0 0.0
2017-Jun-25 16:27N 50°51' W 001°20'0 0.0
2017-Jun-25 16:00N 50°51' W 001°20'0 0.0
2017-Jun-25 15:30N 50°51' W 001°20'0 0.0
2017-Jun-25 14:36N 50°51' W 001°20'0 0.3
2017-Jun-25 14:00N 50°51' W 001°20'3 5.1
2017-Jun-25 13:30N 50°49' W 001°17'611.8
2017-Jun-25 13:00N 50°46' W 001°09'3 6.6
2017-Jun-25 12:30N 50°44' W 001°04'2 4.0
2017-Jun-25 11:59N 50°43' W 001°02'0 0.1
2017-Jun-25 11:29N 50°43' W 001°02'0 0.0
2017-Jun-25 10:59N 50°43' W 001°02'0 0.0
2017-Jun-25 10:29N 50°43' W 001°02'0 0.0
2017-Jun-25 09:59N 50°43' W 001°02'0 0.0
2017-Jun-25 09:29N 50°43' W 001°02'0 0.1
2017-Jun-25 08:59N 50°43' W 001°02'0 0.1
2017-Jun-25 08:29N 50°43' W 001°02'0 0.0
2017-Jun-25 07:59N 50°43' W 001°02'0 0.0
2017-Jun-25 07:29N 50°43' W 001°02'0 0.0
2017-Jun-25 06:59N 50°43' W 001°02'0 0.0
2017-Jun-25 06:29N 50°43' W 001°02'0 0.0
2017-Jun-25 05:59N 50°43' W 001°02'0 0.0
2017-Jun-25 05:29N 50°43' W 001°02'0 0.1
2017-Jun-25 04:59N 50°43' W 001°02'0 0.1
2017-Jun-25 04:29N 50°43' W 001°02'0 0.0
2017-Jun-25 03:59N 50°43' W 001°02'0 0.0
2017-Jun-25 03:29N 50°43' W 001°02'0 0.0
2017-Jun-25 02:59N 50°43' W 001°02'0 0.0
2017-Jun-25 02:29N 50°43' W 001°02'0 0.1
2017-Jun-25 01:59N 50°43' W 001°02'0 0.1
2017-Jun-25 01:29N 50°43' W 001°02'0 0.0
2017-Jun-25 00:59N 50°43' W 001°02'0 0.0
2017-Jun-25 00:29N 50°43' W 001°02'0 0.0
2017-Jun-24 23:59N 50°43' W 001°02'0 0.1
2017-Jun-24 23:29N 50°43' W 001°02'0 0.1
2017-Jun-24 22:59N 50°43' W 001°02'0 0.0
2017-Jun-24 22:29N 50°43' W 001°02'0 0.0
2017-Jun-24 21:59N 50°43' W 001°02'0 0.0
2017-Jun-24 21:29N 50°43' W 001°02'0 0.0
2017-Jun-24 20:59N 50°43' W 001°02'0 0.0
2017-Jun-24 20:29N 50°43' W 001°02'0 0.1
2017-Jun-24 19:59N 50°43' W 001°02'0 0.0
2017-Jun-24 19:29N 50°43' W 001°02'0 0.0
2017-Jun-24 18:59N 50°43' W 001°02'0 0.0
2017-Jun-24 18:29N 50°43' W 001°02'0 0.0
2017-Jun-24 17:59N 50°43' W 001°02'0 0.0
2017-Jun-24 17:29N 50°43' W 001°02'0 0.0
2017-Jun-24 16:59N 50°43' W 001°02'0 0.1
2017-Jun-24 16:29N 50°43' W 001°02'0 0.1
2017-Jun-24 15:59N 50°43' W 001°02'0 0.1
2017-Jun-24 15:29N 50°43' W 001°02'0 0.0
2017-Jun-24 14:59N 50°43' W 001°02'0 0.1
2017-Jun-24 13:59N 50°43' W 001°02'0 0.2
2017-Jun-24 13:29N 50°43' W 001°02'0 0.1
2017-Jun-24 12:59N 50°43' W 001°02'0 0.0
2017-Jun-24 12:29N 50°43' W 001°02'0 0.0
2017-Jun-24 11:59N 50°43' W 001°02'0 0.1
2017-Jun-24 11:29N 50°43' W 001°02'0 0.1
2017-Jun-24 10:59N 50°43' W 001°02'0 0.0
2017-Jun-24 10:29N 50°43' W 001°02'0 0.0
2017-Jun-24 09:59N 50°43' W 001°02'0 0.0
2017-Jun-24 09:29N 50°43' W 001°02'0 0.0
2017-Jun-24 08:59N 50°43' W 001°02'0 0.2
2017-Jun-24 08:31N 50°43' W 001°02'3 5.8
2017-Jun-24 08:00N 50°42' W 000°58'713.6
2017-Jun-24 07:31N 50°35' W 000°59'915.7
2017-Jun-24 06:55N 50°28' W 001°10'715.5
2017-Jun-24 06:30N 50°24' W 001°17'1114.9
2017-Jun-24 05:46N 50°17' W 001°30'1913.6
2017-Jun-24 04:22N 50°05' W 001°53'512.3
2017-Jun-24 03:57N 50°02' W 001°60'711.3
2017-Jun-24 03:21N 49°59' W 002°09'510.5
2017-Jun-24 02:51N 49°57' W 002°17'2110.0
2017-Jun-24 00:47N 49°52' W 002°48'310.2
2017-Jun-24 00:28N 49°51' W 002°53'810.9
2017-Jun-23 23:42N 49°51' W 003°05'311.3
2017-Jun-23 23:28N 49°51' W 003°10'511.7
2017-Jun-23 23:00N 49°51' W 003°18'612.0
2017-Jun-23 22:29N 49°51' W 003°27'612.1
2017-Jun-23 22:00N 49°51' W 003°37'612.3
2017-Jun-23 21:30N 49°51' W 003°46'712.7
2017-Jun-23 20:58N 49°51' W 003°57'254 9.7
2017-Jun-22 18:41N 53°60' W 005°17'212.3
2017-Jun-22 18:30N 54°02' W 005°16'612.7
2017-Jun-22 18:00N 54°08' W 005°15'612.8
2017-Jun-22 17:30N 54°15' W 005°14'612.8
2017-Jun-22 17:00N 54°21' W 005°12'612.9
2017-Jun-22 16:30N 54°27' W 005°11'612.9
2017-Jun-22 16:00N 54°33' W 005°16'613.0
2017-Jun-22 15:30N 54°39' W 005°21'612.3
2017-Jun-22 15:00N 54°44' W 005°26'611.7
2017-Jun-22 14:30N 54°50' W 005°31'1111.0
2017-Jun-22 13:30N 54°60' W 005°39'1410.1
2017-Jun-22 12:10N 55°10' W 005°53'2 9.4
2017-Jun-22 11:59N 55°12' W 005°55'4 9.2
2017-Jun-22 11:30N 55°15' W 005°60'5 9.9
2017-Jun-22 11:00N 55°19' W 006°05'611.0
2017-Jun-22 10:30N 55°21' W 006°14'611.4
2017-Jun-22 10:00N 55°22' W 006°24'611.5
2017-Jun-22 09:29N 55°20' W 006°34'612.2
2017-Jun-22 09:00N 55°17' W 006°43'611.2
2017-Jun-22 08:31N 55°15' W 006°52'612.5
2017-Jun-22 08:00N 55°11' W 007°01'612.1
2017-Jun-22 07:28N 55°08' W 007°10'4 9.0
2017-Jun-22 06:59N 55°04' W 007°14'1 0.4
2017-Jun-22 03:56N 55°03' W 007°15'0 0.0
2017-Jun-21 06:32N 55°03' W 007°15'0 0.0
2017-Jun-21 05:12N 55°03' W 007°15'0 0.0
2017-Jun-21 04:55N 55°03' W 007°15'0 0.9
2017-Jun-21 04:31N 55°03' W 007°14'3 6.6
2017-Jun-21 04:00N 55°06' W 007°12'4 8.4
2017-Jun-21 03:30N 55°09' W 007°07'4 7.8
2017-Jun-21 02:59N 55°11' W 007°01'511.4
2017-Jun-21 02:30N 55°15' W 006°53'2 4.8
2017-Jun-21 02:00N 55°16' W 006°50'4 8.0
2017-Jun-21 01:30N 55°18' W 006°43'612.5
2017-Jun-21 01:00N 55°21' W 006°34'713.1
2017-Jun-21 00:30N 55°24' W 006°23'713.3
2017-Jun-21 00:00N 55°25' W 006°12'713.6
2017-Jun-20 23:30N 55°23' W 006°01'816.2
2017-Jun-20 23:00N 55°16' W 005°53'815.2
2017-Jun-20 22:30N 55°09' W 005°47'714.2
2017-Jun-20 21:59N 55°03' W 005°41'713.8
2017-Jun-20 21:30N 54°57' W 005°37'612.9
2017-Jun-20 21:01N 54°51' W 005°32'612.5
2017-Jun-20 20:30N 54°45' W 005°27'612.1
2017-Jun-20 20:00N 54°40' W 005°23'612.3
2017-Jun-20 19:30N 54°34' W 005°18'612.1
2017-Jun-20 19:01N 54°29' W 005°14'611.7
2017-Jun-20 18:31N 54°23' W 005°10'611.5
2017-Jun-20 18:00N 54°18' W 005°08'612.0
2017-Jun-20 17:30N 54°12' W 005°10'612.3
2017-Jun-20 17:01N 54°06' W 005°11'612.2
2017-Jun-20 16:30N 53°60' W 005°12'612.4
2017-Jun-20 16:01N 53°54' W 005°14'612.6
2017-Jun-20 15:30N 53°47' W 005°16'1412.5
2017-Jun-20 14:25N 53°34' W 005°19'3310.8
2017-Jun-20 11:25N 53°02' W 005°28'7410.0
2017-Jun-20 04:01N 51°58' W 006°30'612.0
2017-Jun-20 03:30N 51°57' W 006°40'611.7
2017-Jun-20 02:59N 51°55' W 006°49'511.4
2017-Jun-20 02:30N 51°54' W 006°58'611.5
2017-Jun-20 02:00N 51°52' W 007°07'611.5
2017-Jun-20 01:31N 51°50' W 007°16'611.4
2017-Jun-20 01:00N 51°49' W 007°24'611.3
2017-Jun-20 00:28N 51°47' W 007°34'511.4
2017-Jun-20 00:00N 51°46' W 007°42'611.5
2017-Jun-19 23:31N 51°44' W 007°51'611.6
2017-Jun-19 23:00N 51°44' W 008°00'611.9
2017-Jun-19 22:30N 51°45' W 008°10'5 9.1
2017-Jun-19 22:00N 51°48' W 008°16'3 4.8
2017-Jun-19 21:28N 51°50' W 008°16'0 0.0
2017-Jun-19 20:58N 51°50' W 008°16'0 0.0
2017-Jun-19 20:28N 51°50' W 008°16'0 0.0
2017-Jun-19 19:58N 51°50' W 008°16'0 0.0
2017-Jun-19 19:28N 51°50' W 008°16'0 0.0
2017-Jun-19 18:58N 51°50' W 008°16'0 0.0
2017-Jun-19 18:28N 51°50' W 008°16'0 0.0
2017-Jun-19 17:58N 51°50' W 008°16'0 0.0
2017-Jun-19 17:28N 51°50' W 008°16'0 0.0
2017-Jun-19 16:58N 51°50' W 008°16'0 0.0
2017-Jun-19 16:28N 51°50' W 008°16'0 0.0
2017-Jun-19 15:58N 51°50' W 008°16'0 0.0
2017-Jun-19 15:28N 51°50' W 008°16'0 0.0
2017-Jun-19 14:58N 51°50' W 008°16'0 0.0
2017-Jun-19 13:58N 51°50' W 008°16'0 0.0
2017-Jun-19 13:28N 51°50' W 008°16'0 0.0
2017-Jun-19 12:58N 51°50' W 008°16'0 0.0
2017-Jun-19 12:28N 51°50' W 008°16'0 0.0
2017-Jun-19 11:58N 51°50' W 008°16'0 0.0
2017-Jun-19 11:28N 51°50' W 008°16'0 0.0
2017-Jun-19 10:55N 51°50' W 008°16'0 0.0
2017-Jun-19 10:28N 51°50' W 008°16'0 0.0
2017-Jun-19 09:58N 51°50' W 008°16'0 0.0
2017-Jun-19 09:28N 51°50' W 008°16'0 0.0
2017-Jun-19 08:58N 51°50' W 008°16'0 0.0
2017-Jun-19 08:28N 51°50' W 008°16'0 0.0
2017-Jun-19 07:58N 51°50' W 008°16'0 0.0
2017-Jun-19 07:28N 51°50' W 008°16'0 0.0
2017-Jun-19 06:58N 51°50' W 008°16'0 0.0
2017-Jun-19 06:28N 51°50' W 008°16'0 0.0
2017-Jun-19 05:58N 51°50' W 008°16'0 0.0
2017-Jun-19 05:28N 51°50' W 008°16'0 0.0
2017-Jun-19 04:58N 51°50' W 008°16'0 0.0
2017-Jun-19 04:28N 51°50' W 008°16'0 0.0
2017-Jun-19 03:58N 51°50' W 008°16'0 0.0
2017-Jun-19 03:28N 51°50' W 008°16'0 0.0
2017-Jun-19 02:58N 51°50' W 008°16'0 0.0
2017-Jun-19 02:28N 51°50' W 008°16'0 0.0
2017-Jun-19 01:58N 51°50' W 008°16'0 0.0
2017-Jun-19 01:28N 51°50' W 008°16'0 0.0
2017-Jun-19 00:58N 51°50' W 008°16'0 0.0
2017-Jun-19 00:28N 51°50' W 008°16'0 0.0
2017-Jun-18 23:58N 51°50' W 008°16'0 0.0
2017-Jun-18 23:28N 51°50' W 008°16'0 0.0
2017-Jun-18 22:58N 51°50' W 008°16'0 0.0
2017-Jun-18 22:28N 51°50' W 008°16'0 0.0
2017-Jun-18 21:58N 51°50' W 008°16'0 0.0
2017-Jun-18 21:28N 51°50' W 008°16'0 0.0
2017-Jun-18 21:00N 51°50' W 008°16'0 0.4
2017-Jun-18 20:30N 51°50' W 008°16'4 7.6
2017-Jun-18 20:00N 51°46' W 008°15'4 7.9
2017-Jun-18 19:30N 51°43' W 008°12'612.2
2017-Jun-18 19:00N 51°39' W 008°04'612.6
2017-Jun-18 18:30N 51°35' W 007°57'612.9
2017-Jun-18 18:00N 51°30' W 007°50'612.8
2017-Jun-18 17:30N 51°26' W 007°42'612.9
2017-Jun-18 17:00N 51°21' W 007°35'612.9
2017-Jun-18 16:30N 51°17' W 007°27'612.8
2017-Jun-18 16:00N 51°12' W 007°20'612.8
2017-Jun-18 15:30N 51°08' W 007°12'612.7
2017-Jun-18 15:00N 51°04' W 007°05'1312.6
2017-Jun-18 14:00N 50°55' W 006°50'612.4
2017-Jun-18 13:30N 50°51' W 006°43'612.4
2017-Jun-18 13:00N 50°47' W 006°36'612.4
2017-Jun-18 12:30N 50°42' W 006°29'612.4
2017-Jun-18 12:00N 50°38' W 006°22'612.2
2017-Jun-18 11:30N 50°34' W 006°15'612.3
2017-Jun-18 11:00N 50°30' W 006°08'612.4
2017-Jun-18 10:30N 50°25' W 006°01'611.8
2017-Jun-18 10:00N 50°21' W 005°54'713.3
2017-Jun-18 09:30N 50°14' W 005°54'713.5
2017-Jun-18 09:00N 50°08' W 005°54'713.2
2017-Jun-18 08:30N 50°01' W 005°54'912.5
2017-Jun-18 07:45N 49°57' W 005°41'312.8
2017-Jun-18 07:29N 49°57' W 005°36'612.8
2017-Jun-18 07:00N 49°56' W 005°26'713.1
2017-Jun-18 06:29N 49°54' W 005°16'713.2
2017-Jun-18 05:59N 49°53' W 005°06'612.9
2017-Jun-18 05:30N 49°52' W 004°57'713.2
2017-Jun-18 05:00N 49°53' W 004°46'713.2
2017-Jun-18 04:29N 49°53' W 004°36'613.2
2017-Jun-18 04:00N 49°54' W 004°26'713.2
2017-Jun-18 03:29N 49°55' W 004°15'613.0
2017-Jun-18 03:00N 49°56' W 004°06'712.6
2017-Jun-18 02:27N 49°56' W 003°55'612.5
2017-Jun-18 01:57N 49°57' W 003°46'612.3
2017-Jun-18 01:30N 49°57' W 003°37'612.0
2017-Jun-18 01:00N 49°58' W 003°28'611.9
2017-Jun-18 00:30N 49°59' W 003°19'612.0
2017-Jun-18 00:00N 49°60' W 003°09'612.2
2017-Jun-17 23:30N 50°00' W 002°60'612.3
2017-Jun-17 23:00N 50°01' W 002°50'612.6
2017-Jun-17 22:30N 50°03' W 002°41'612.9
2017-Jun-17 22:00N 50°05' W 002°31'713.2
2017-Jun-17 21:30N 50°06' W 002°21'713.7
2017-Jun-17 21:00N 50°08' W 002°11'714.3
2017-Jun-17 20:30N 50°10' W 002°00'714.6
2017-Jun-17 20:00N 50°12' W 001°49'714.9
2017-Jun-17 19:31N 50°14' W 001°38'815.0
2017-Jun-17 19:00N 50°15' W 001°27'714.9
2017-Jun-17 18:30N 50°17' W 001°15'714.6
2017-Jun-17 18:00N 50°19' W 001°04'714.1
2017-Jun-17 17:30N 50°21' W 000°54'713.3
2017-Jun-17 17:00N 50°23' W 000°43'712.6
2017-Jun-17 16:28N 50°24' W 000°33'612.3
2017-Jun-17 15:59N 50°26' W 000°24'611.9
2017-Jun-17 15:30N 50°28' W 000°16'611.7
2017-Jun-17 15:00N 50°29' W 000°07'611.4
2017-Jun-17 14:30N 50°31' E 000°02'1111.1
2017-Jun-17 13:30N 50°34' E 000°19'4 7.6
2017-Jun-17 13:00N 50°34' E 000°25'912.0
2017-Jun-17 12:13N 50°38' E 000°38'2313.5
2017-Jun-17 10:33N 50°51' E 001°08'113.8
2017-Jun-17 10:27N 50°51' E 001°10'613.9
2017-Jun-17 10:00N 50°55' E 001°18'714.2
2017-Jun-17 09:30N 51°00' E 001°25'713.1
2017-Jun-17 09:00N 51°05' E 001°33'510.5
2017-Jun-17 08:30N 51°06' E 001°41'612.3
2017-Jun-17 08:00N 51°03' E 001°50'612.3
2017-Jun-17 07:30N 51°03' E 001°59'611.9
2017-Jun-17 07:00N 51°03' E 002°09'611.5
2017-Jun-17 06:30N 51°04' E 002°18'2 3.4
2017-Jun-17 06:00N 51°03' E 002°20'0 0.5
2017-Jun-17 05:30N 51°03' E 002°20'1 1.1
2017-Jun-17 04:58N 51°03' E 002°21'0 0.0
2017-Jun-17 04:16N 51°03' E 002°21'0 0.0
2017-Jun-17 03:59N 51°03' E 002°21'0 0.0
2017-Jun-17 03:28N 51°03' E 002°21'0 0.0
2017-Jun-17 02:58N 51°03' E 002°21'0 0.0
2017-Jun-17 02:30N 51°03' E 002°21'0 0.0
2017-Jun-17 02:00N 51°03' E 002°21'0 0.0
2017-Jun-17 01:30N 51°03' E 002°21'0 0.0
2017-Jun-17 01:00N 51°03' E 002°21'0 0.0
2017-Jun-17 00:30N 51°03' E 002°21'0 0.0
2017-Jun-17 00:00N 51°03' E 002°21'0 0.0
2017-Jun-16 23:30N 51°03' E 002°21'0 0.0
2017-Jun-16 23:00N 51°03' E 002°21'0 0.0
2017-Jun-16 22:30N 51°03' E 002°21'0 0.0
2017-Jun-16 22:00N 51°03' E 002°21'0 0.0
2017-Jun-16 21:30N 51°03' E 002°21'0 0.0
2017-Jun-16 21:00N 51°03' E 002°21'0 0.0
2017-Jun-16 20:30N 51°03' E 002°21'0 0.0
2017-Jun-16 20:00N 51°03' E 002°21'0 0.0
2017-Jun-16 19:30N 51°03' E 002°21'0 0.0
2017-Jun-16 19:00N 51°03' E 002°21'0 0.0
2017-Jun-16 18:30N 51°03' E 002°21'0 0.0
2017-Jun-16 18:00N 51°03' E 002°21'0 0.0
2017-Jun-16 17:30N 51°03' E 002°21'0 0.0
2017-Jun-16 17:01N 51°03' E 002°21'0 0.0
2017-Jun-16 16:30N 51°03' E 002°21'0 0.0
2017-Jun-16 16:00N 51°03' E 002°21'0 0.0
2017-Jun-16 15:30N 51°03' E 002°21'  

Dump ship's entire track history